sensor_id;sensor_type;location;lat;lon;timestamp;P1;durP1;ratioP1;P2;durP2;ratioP2
39982;SDS011;25670;44.782;10.356;2022-07-21T00:00:39;7.45;;;5.38;;
39982;SDS011;25670;44.782;10.356;2022-07-21T00:03:05;9.95;;;5.28;;
39982;SDS011;25670;44.782;10.356;2022-07-21T00:05:31;6.10;;;5.32;;
39982;SDS011;25670;44.782;10.356;2022-07-21T00:07:58;6.55;;;4.78;;
39982;SDS011;25670;44.782;10.356;2022-07-21T00:10:24;5.28;;;4.88;;
39982;SDS011;25670;44.782;10.356;2022-07-21T00:12:51;10.50;;;4.90;;
39982;SDS011;25670;44.782;10.356;2022-07-21T00:15:19;5.95;;;5.35;;
39982;SDS011;25670;44.782;10.356;2022-07-21T00:17:47;9.55;;;5.72;;
39982;SDS011;25670;44.782;10.356;2022-07-21T00:20:14;7.18;;;4.90;;
39982;SDS011;25670;44.782;10.356;2022-07-21T00:22:41;6.00;;;5.50;;
39982;SDS011;25670;44.782;10.356;2022-07-21T00:25:09;6.45;;;5.82;;
39982;SDS011;25670;44.782;10.356;2022-07-21T00:27:36;6.68;;;6.07;;
39982;SDS011;25670;44.782;10.356;2022-07-21T00:30:03;9.07;;;5.40;;
39982;SDS011;25670;44.782;10.356;2022-07-21T00:32:31;7.47;;;5.38;;
39982;SDS011;25670;44.782;10.356;2022-07-21T00:34:57;6.30;;;5.32;;
39982;SDS011;25670;44.782;10.356;2022-07-21T00:37:23;6.57;;;5.60;;
39982;SDS011;25670;44.782;10.356;2022-07-21T00:39:50;7.50;;;5.28;;
39982;SDS011;25670;44.782;10.356;2022-07-21T00:42:23;6.35;;;5.22;;
39982;SDS011;25670;44.782;10.356;2022-07-21T00:44:51;5.35;;;4.90;;
39982;SDS011;25670;44.782;10.356;2022-07-21T00:47:21;8.30;;;5.90;;
39982;SDS011;25670;44.782;10.356;2022-07-21T00:49:50;10.18;;;5.47;;
39982;SDS011;25670;44.782;10.356;2022-07-21T00:52:18;9.90;;;5.68;;
39982;SDS011;25670;44.782;10.356;2022-07-21T00:54:45;7.32;;;6.78;;
39982;SDS011;25670;44.782;10.356;2022-07-21T00:57:12;13.45;;;7.50;;
39982;SDS011;25670;44.782;10.356;2022-07-21T00:59:40;7.35;;;6.80;;
39982;SDS011;25670;44.782;10.356;2022-07-21T01:02:08;7.32;;;6.75;;
39982;SDS011;25670;44.782;10.356;2022-07-21T01:04:35;7.10;;;6.57;;
39982;SDS011;25670;44.782;10.356;2022-07-21T01:07:02;7.32;;;6.63;;
39982;SDS011;25670;44.782;10.356;2022-07-21T01:09:29;6.35;;;5.95;;
39982;SDS011;25670;44.782;10.356;2022-07-21T01:11:56;6.60;;;6.10;;
39982;SDS011;25670;44.782;10.356;2022-07-21T01:14:23;7.18;;;5.85;;
39982;SDS011;25670;44.782;10.356;2022-07-21T01:16:50;6.97;;;6.50;;
39982;SDS011;25670;44.782;10.356;2022-07-21T01:19:17;7.65;;;5.35;;
39982;SDS011;25670;44.782;10.356;2022-07-21T01:21:44;6.15;;;5.65;;
39982;SDS011;25670;44.782;10.356;2022-07-21T01:24:13;6.68;;;5.70;;
39982;SDS011;25670;44.782;10.356;2022-07-21T01:26:41;6.70;;;6.03;;
39982;SDS011;25670;44.782;10.356;2022-07-21T01:31:38;6.68;;;6.05;;
39982;SDS011;25670;44.782;10.356;2022-07-21T01:34:09;6.95;;;6.20;;
39982;SDS011;25670;44.782;10.356;2022-07-21T01:36:36;7.60;;;6.50;;
39982;SDS011;25670;44.782;10.356;2022-07-21T01:39:03;6.95;;;6.05;;
39982;SDS011;25670;44.782;10.356;2022-07-21T01:41:49;8.00;;;6.15;;
39982;SDS011;25670;44.782;10.356;2022-07-21T01:44:15;7.18;;;5.75;;
39982;SDS011;25670;44.782;10.356;2022-07-21T01:46:46;7.15;;;6.60;;
39982;SDS011;25670;44.782;10.356;2022-07-21T01:49:15;7.35;;;6.63;;
39982;SDS011;25670;44.782;10.356;2022-07-21T01:51:42;9.40;;;6.32;;
39982;SDS011;25670;44.782;10.356;2022-07-21T01:54:10;7.45;;;6.80;;
39982;SDS011;25670;44.782;10.356;2022-07-21T01:59:13;10.35;;;7.25;;
39982;SDS011;25670;44.782;10.356;2022-07-21T02:01:39;8.80;;;7.65;;
39982;SDS011;25670;44.782;10.356;2022-07-21T02:04:05;8.35;;;7.53;;
39982;SDS011;25670;44.782;10.356;2022-07-21T02:06:32;7.72;;;7.03;;
39982;SDS011;25670;44.782;10.356;2022-07-21T02:08:58;7.82;;;7.25;;
39982;SDS011;25670;44.782;10.356;2022-07-21T02:11:25;7.25;;;6.65;;
39982;SDS011;25670;44.782;10.356;2022-07-21T02:13:51;9.85;;;7.97;;
39982;SDS011;25670;44.782;10.356;2022-07-21T02:16:18;10.50;;;7.85;;
39982;SDS011;25670;44.782;10.356;2022-07-21T02:18:45;8.45;;;7.03;;
39982;SDS011;25670;44.782;10.356;2022-07-21T02:21:11;8.50;;;7.68;;
39982;SDS011;25670;44.782;10.356;2022-07-21T02:23:38;9.73;;;8.05;;
39982;SDS011;25670;44.782;10.356;2022-07-21T02:26:04;9.25;;;8.23;;
39982;SDS011;25670;44.782;10.356;2022-07-21T02:28:31;10.02;;;8.05;;
39982;SDS011;25670;44.782;10.356;2022-07-21T02:30:57;9.60;;;8.73;;
39982;SDS011;25670;44.782;10.356;2022-07-21T02:33:23;9.48;;;8.25;;
39982;SDS011;25670;44.782;10.356;2022-07-21T02:35:50;13.50;;;8.02;;
39982;SDS011;25670;44.782;10.356;2022-07-21T02:38:16;8.90;;;8.20;;
39982;SDS011;25670;44.782;10.356;2022-07-21T02:40:42;13.60;;;8.63;;
39982;SDS011;25670;44.782;10.356;2022-07-21T02:43:08;10.52;;;9.35;;
39982;SDS011;25670;44.782;10.356;2022-07-21T02:45:35;12.90;;;8.25;;
39982;SDS011;25670;44.782;10.356;2022-07-21T02:48:03;9.75;;;8.88;;
39982;SDS011;25670;44.782;10.356;2022-07-21T02:50:35;9.32;;;8.38;;
39982;SDS011;25670;44.782;10.356;2022-07-21T02:53:03;9.60;;;8.80;;
39982;SDS011;25670;44.782;10.356;2022-07-21T02:55:35;15.07;;;8.98;;
39982;SDS011;25670;44.782;10.356;2022-07-21T03:00:49;9.77;;;8.00;;
39982;SDS011;25670;44.782;10.356;2022-07-21T03:03:20;15.02;;;8.13;;
39982;SDS011;25670;44.782;10.356;2022-07-21T03:05:48;13.18;;;9.48;;
39982;SDS011;25670;44.782;10.356;2022-07-21T03:08:15;9.20;;;8.60;;
39982;SDS011;25670;44.782;10.356;2022-07-21T03:10:42;10.55;;;9.30;;
39982;SDS011;25670;44.782;10.356;2022-07-21T03:13:08;10.27;;;7.80;;
39982;SDS011;25670;44.782;10.356;2022-07-21T03:15:35;9.40;;;8.40;;
39982;SDS011;25670;44.782;10.356;2022-07-21T03:18:02;9.30;;;8.27;;
39982;SDS011;25670;44.782;10.356;2022-07-21T03:20:29;10.15;;;8.45;;
39982;SDS011;25670;44.782;10.356;2022-07-21T03:22:58;14.18;;;8.65;;
39982;SDS011;25670;44.782;10.356;2022-07-21T03:25:24;9.10;;;8.45;;
39982;SDS011;25670;44.782;10.356;2022-07-21T03:27:51;8.85;;;8.10;;
39982;SDS011;25670;44.782;10.356;2022-07-21T03:30:18;11.93;;;7.40;;
39982;SDS011;25670;44.782;10.356;2022-07-21T03:32:47;11.35;;;8.00;;
39982;SDS011;25670;44.782;10.356;2022-07-21T03:35:14;9.75;;;8.80;;
39982;SDS011;25670;44.782;10.356;2022-07-21T03:37:41;11.30;;;9.55;;
39982;SDS011;25670;44.782;10.356;2022-07-21T03:40:10;9.65;;;8.77;;
39982;SDS011;25670;44.782;10.356;2022-07-21T03:42:37;9.05;;;8.50;;
39982;SDS011;25670;44.782;10.356;2022-07-21T03:45:04;13.73;;;9.73;;
39982;SDS011;25670;44.782;10.356;2022-07-21T03:47:33;10.90;;;9.15;;
39982;SDS011;25670;44.782;10.356;2022-07-21T03:50:00;9.45;;;8.68;;
39982;SDS011;25670;44.782;10.356;2022-07-21T03:52:26;10.60;;;8.77;;
39982;SDS011;25670;44.782;10.356;2022-07-21T03:54:53;9.50;;;8.70;;
39982;SDS011;25670;44.782;10.356;2022-07-21T03:57:56;9.50;;;8.10;;
39982;SDS011;25670;44.782;10.356;2022-07-21T04:00:24;9.48;;;8.75;;
39982;SDS011;25670;44.782;10.356;2022-07-21T04:02:57;9.80;;;9.00;;
39982;SDS011;25670;44.782;10.356;2022-07-21T04:05:24;15.18;;;9.10;;
39982;SDS011;25670;44.782;10.356;2022-07-21T04:07:51;13.05;;;8.15;;
39982;SDS011;25670;44.782;10.356;2022-07-21T04:10:19;19.08;;;8.98;;
39982;SDS011;25670;44.782;10.356;2022-07-21T04:12:48;19.25;;;8.70;;
39982;SDS011;25670;44.782;10.356;2022-07-21T04:15:17;9.57;;;8.27;;
39982;SDS011;25670;44.782;10.356;2022-07-21T04:17:44;10.63;;;9.18;;
39982;SDS011;25670;44.782;10.356;2022-07-21T04:20:14;12.30;;;10.43;;
39982;SDS011;25670;44.782;10.356;2022-07-21T04:22:42;10.70;;;9.90;;
39982;SDS011;25670;44.782;10.356;2022-07-21T04:25:10;19.50;;;10.45;;
39982;SDS011;25670;44.782;10.356;2022-07-21T04:27:37;17.10;;;10.85;;
39982;SDS011;25670;44.782;10.356;2022-07-21T04:30:04;17.15;;;12.77;;
39982;SDS011;25670;44.782;10.356;2022-07-21T04:32:31;14.38;;;11.90;;
39982;SDS011;25670;44.782;10.356;2022-07-21T04:34:58;30.10;;;20.15;;
39982;SDS011;25670;44.782;10.356;2022-07-21T04:37:24;17.65;;;13.38;;
39982;SDS011;25670;44.782;10.356;2022-07-21T04:39:50;12.93;;;11.45;;
39982;SDS011;25670;44.782;10.356;2022-07-21T04:42:16;12.77;;;11.27;;
39982;SDS011;25670;44.782;10.356;2022-07-21T04:44:43;13.65;;;11.82;;
39982;SDS011;25670;44.782;10.356;2022-07-21T04:47:09;16.05;;;12.80;;
39982;SDS011;25670;44.782;10.356;2022-07-21T04:49:35;19.45;;;11.80;;
39982;SDS011;25670;44.782;10.356;2022-07-21T04:52:04;29.98;;;19.05;;
39982;SDS011;25670;44.782;10.356;2022-07-21T04:54:31;17.65;;;13.52;;
39982;SDS011;25670;44.782;10.356;2022-07-21T04:56:57;21.83;;;11.55;;
39982;SDS011;25670;44.782;10.356;2022-07-21T04:59:24;10.93;;;10.10;;
39982;SDS011;25670;44.782;10.356;2022-07-21T05:01:51;15.25;;;11.68;;
39982;SDS011;25670;44.782;10.356;2022-07-21T05:04:17;11.93;;;10.63;;
39982;SDS011;25670;44.782;10.356;2022-07-21T05:06:43;21.75;;;11.52;;
39982;SDS011;25670;44.782;10.356;2022-07-21T05:09:09;13.18;;;11.75;;
39982;SDS011;25670;44.782;10.356;2022-07-21T05:11:36;15.85;;;11.48;;
39982;SDS011;25670;44.782;10.356;2022-07-21T05:14:02;15.07;;;11.88;;
39982;SDS011;25670;44.782;10.356;2022-07-21T05:16:28;24.65;;;12.43;;
39982;SDS011;25670;44.782;10.356;2022-07-21T05:18:55;27.30;;;14.32;;
39982;SDS011;25670;44.782;10.356;2022-07-21T05:21:21;26.85;;;14.38;;
39982;SDS011;25670;44.782;10.356;2022-07-21T05:23:47;17.67;;;14.32;;
39982;SDS011;25670;44.782;10.356;2022-07-21T05:26:13;23.20;;;14.48;;
39982;SDS011;25670;44.782;10.356;2022-07-21T05:28:40;15.13;;;13.73;;
39982;SDS011;25670;44.782;10.356;2022-07-21T05:31:06;16.15;;;13.90;;
39982;SDS011;25670;44.782;10.356;2022-07-21T05:33:33;16.33;;;13.55;;
39982;SDS011;25670;44.782;10.356;2022-07-21T05:36:00;30.40;;;12.70;;
39982;SDS011;25670;44.782;10.356;2022-07-21T05:38:27;17.42;;;14.57;;
39982;SDS011;25670;44.782;10.356;2022-07-21T05:40:53;22.95;;;13.85;;
39982;SDS011;25670;44.782;10.356;2022-07-21T05:43:20;19.23;;;13.00;;
39982;SDS011;25670;44.782;10.356;2022-07-21T05:45:46;23.40;;;13.77;;
39982;SDS011;25670;44.782;10.356;2022-07-21T05:48:12;18.02;;;13.50;;
39982;SDS011;25670;44.782;10.356;2022-07-21T05:50:40;16.63;;;12.98;;
39982;SDS011;25670;44.782;10.356;2022-07-21T05:53:06;13.60;;;11.23;;
39982;SDS011;25670;44.782;10.356;2022-07-21T05:55:32;18.67;;;11.75;;
39982;SDS011;25670;44.782;10.356;2022-07-21T05:57:59;17.35;;;12.23;;
39982;SDS011;25670;44.782;10.356;2022-07-21T06:00:25;17.48;;;12.82;;
39982;SDS011;25670;44.782;10.356;2022-07-21T06:02:51;16.95;;;13.85;;
39982;SDS011;25670;44.782;10.356;2022-07-21T06:05:17;15.30;;;12.95;;
39982;SDS011;25670;44.782;10.356;2022-07-21T06:07:44;19.33;;;12.23;;
39982;SDS011;25670;44.782;10.356;2022-07-21T06:10:10;16.80;;;12.27;;
39982;SDS011;25670;44.782;10.356;2022-07-21T06:12:37;16.25;;;12.20;;
39982;SDS011;25670;44.782;10.356;2022-07-21T06:15:03;19.17;;;12.15;;
39982;SDS011;25670;44.782;10.356;2022-07-21T06:17:30;14.52;;;10.82;;
39982;SDS011;25670;44.782;10.356;2022-07-21T06:19:58;23.95;;;12.63;;
39982;SDS011;25670;44.782;10.356;2022-07-21T06:22:24;21.30;;;11.52;;
39982;SDS011;25670;44.782;10.356;2022-07-21T06:24:51;13.70;;;11.98;;
39982;SDS011;25670;44.782;10.356;2022-07-21T06:27:17;18.55;;;11.95;;
39982;SDS011;25670;44.782;10.356;2022-07-21T06:29:43;20.67;;;11.48;;
39982;SDS011;25670;44.782;10.356;2022-07-21T06:32:09;18.45;;;12.75;;
39982;SDS011;25670;44.782;10.356;2022-07-21T06:34:36;20.75;;;11.50;;
39982;SDS011;25670;44.782;10.356;2022-07-21T06:37:02;19.90;;;12.50;;
39982;SDS011;25670;44.782;10.356;2022-07-21T06:39:28;30.52;;;13.05;;
39982;SDS011;25670;44.782;10.356;2022-07-21T06:41:54;21.38;;;12.57;;
39982;SDS011;25670;44.782;10.356;2022-07-21T06:44:21;12.40;;;11.27;;
39982;SDS011;25670;44.782;10.356;2022-07-21T06:46:47;18.10;;;10.48;;
39982;SDS011;25670;44.782;10.356;2022-07-21T06:49:13;20.60;;;11.60;;
39982;SDS011;25670;44.782;10.356;2022-07-21T06:51:39;14.23;;;11.30;;
39982;SDS011;25670;44.782;10.356;2022-07-21T06:54:06;18.55;;;11.95;;
39982;SDS011;25670;44.782;10.356;2022-07-21T06:56:32;20.58;;;10.52;;
39982;SDS011;25670;44.782;10.356;2022-07-21T06:58:58;19.75;;;11.60;;
39982;SDS011;25670;44.782;10.356;2022-07-21T07:01:24;16.65;;;11.25;;
39982;SDS011;25670;44.782;10.356;2022-07-21T07:03:51;15.95;;;11.60;;
39982;SDS011;25670;44.782;10.356;2022-07-21T07:06:17;16.23;;;12.23;;
39982;SDS011;25670;44.782;10.356;2022-07-21T07:08:43;12.80;;;11.90;;
39982;SDS011;25670;44.782;10.356;2022-07-21T07:11:09;15.43;;;11.07;;
39982;SDS011;25670;44.782;10.356;2022-07-21T07:13:36;14.02;;;10.40;;
39982;SDS011;25670;44.782;10.356;2022-07-21T07:16:02;15.40;;;11.02;;
39982;SDS011;25670;44.782;10.356;2022-07-21T07:18:28;18.48;;;10.35;;
39982;SDS011;25670;44.782;10.356;2022-07-21T07:20:55;13.88;;;11.32;;
39982;SDS011;25670;44.782;10.356;2022-07-21T07:23:21;13.98;;;11.45;;
39982;SDS011;25670;44.782;10.356;2022-07-21T07:25:47;13.32;;;10.10;;
39982;SDS011;25670;44.782;10.356;2022-07-21T07:28:13;18.25;;;11.02;;
39982;SDS011;25670;44.782;10.356;2022-07-21T07:30:40;14.55;;;10.98;;
39982;SDS011;25670;44.782;10.356;2022-07-21T07:33:06;17.13;;;10.95;;
39982;SDS011;25670;44.782;10.356;2022-07-21T07:35:32;11.00;;;10.05;;
39982;SDS011;25670;44.782;10.356;2022-07-21T07:37:59;22.55;;;10.18;;
39982;SDS011;25670;44.782;10.356;2022-07-21T07:40:27;14.55;;;10.40;;
39982;SDS011;25670;44.782;10.356;2022-07-21T07:42:55;16.83;;;9.07;;
39982;SDS011;25670;44.782;10.356;2022-07-21T07:45:21;14.77;;;8.45;;
39982;SDS011;25670;44.782;10.356;2022-07-21T07:47:48;14.55;;;8.55;;
39982;SDS011;25670;44.782;10.356;2022-07-21T07:50:14;11.45;;;7.45;;
39982;SDS011;25670;44.782;10.356;2022-07-21T07:52:41;10.20;;;7.90;;
39982;SDS011;25670;44.782;10.356;2022-07-21T07:55:10;8.48;;;7.25;;
39982;SDS011;25670;44.782;10.356;2022-07-21T07:57:38;17.52;;;8.45;;
39982;SDS011;25670;44.782;10.356;2022-07-21T08:00:07;7.50;;;6.90;;
39982;SDS011;25670;44.782;10.356;2022-07-21T08:02:39;8.43;;;7.72;;
39982;SDS011;25670;44.782;10.356;2022-07-21T08:05:05;8.30;;;7.45;;
39982;SDS011;25670;44.782;10.356;2022-07-21T08:07:34;12.45;;;7.20;;
39982;SDS011;25670;44.782;10.356;2022-07-21T08:10:07;8.15;;;7.32;;
39982;SDS011;25670;44.782;10.356;2022-07-21T08:12:35;9.18;;;7.82;;
39982;SDS011;25670;44.782;10.356;2022-07-21T08:15:02;8.07;;;7.43;;
39982;SDS011;25670;44.782;10.356;2022-07-21T08:17:28;15.48;;;7.93;;
39982;SDS011;25670;44.782;10.356;2022-07-21T08:19:55;16.92;;;8.18;;
39982;SDS011;25670;44.782;10.356;2022-07-21T08:22:21;9.02;;;7.68;;
39982;SDS011;25670;44.782;10.356;2022-07-21T08:24:47;8.30;;;7.78;;
39982;SDS011;25670;44.782;10.356;2022-07-21T08:27:14;7.80;;;7.32;;
39982;SDS011;25670;44.782;10.356;2022-07-21T08:29:40;8.38;;;7.63;;
39982;SDS011;25670;44.782;10.356;2022-07-21T08:32:06;10.40;;;7.53;;
39982;SDS011;25670;44.782;10.356;2022-07-21T08:34:34;10.73;;;8.35;;
39982;SDS011;25670;44.782;10.356;2022-07-21T08:37:00;8.88;;;8.00;;
39982;SDS011;25670;44.782;10.356;2022-07-21T08:39:27;9.70;;;8.75;;
39982;SDS011;25670;44.782;10.356;2022-07-21T08:41:53;9.00;;;8.15;;
39982;SDS011;25670;44.782;10.356;2022-07-21T08:44:22;9.68;;;8.15;;
39982;SDS011;25670;44.782;10.356;2022-07-21T08:46:49;11.60;;;8.10;;
39982;SDS011;25670;44.782;10.356;2022-07-21T08:49:19;8.82;;;7.82;;
39982;SDS011;25670;44.782;10.356;2022-07-21T08:51:49;10.80;;;8.35;;
39982;SDS011;25670;44.782;10.356;2022-07-21T08:54:20;9.07;;;8.32;;
39982;SDS011;25670;44.782;10.356;2022-07-21T08:56:47;13.87;;;9.20;;
39982;SDS011;25670;44.782;10.356;2022-07-21T08:59:13;19.02;;;9.55;;
39982;SDS011;25670;44.782;10.356;2022-07-21T09:01:40;14.20;;;7.57;;
39982;SDS011;25670;44.782;10.356;2022-07-21T09:04:21;9.52;;;8.35;;
39982;SDS011;25670;44.782;10.356;2022-07-21T09:06:57;8.68;;;7.53;;
39982;SDS011;25670;44.782;10.356;2022-07-21T09:09:29;13.55;;;7.38;;
39982;SDS011;25670;44.782;10.356;2022-07-21T09:11:56;10.88;;;7.10;;
39982;SDS011;25670;44.782;10.356;2022-07-21T09:14:29;13.07;;;8.23;;
39982;SDS011;25670;44.782;10.356;2022-07-21T09:16:58;9.88;;;7.15;;
39982;SDS011;25670;44.782;10.356;2022-07-21T09:22:02;8.65;;;6.78;;
39982;SDS011;25670;44.782;10.356;2022-07-21T09:24:32;9.15;;;6.70;;
39982;SDS011;25670;44.782;10.356;2022-07-21T09:29:53;7.28;;;5.75;;
39982;SDS011;25670;44.782;10.356;2022-07-21T09:32:29;7.85;;;5.40;;
39982;SDS011;25670;44.782;10.356;2022-07-21T09:37:25;5.43;;;4.97;;
39982;SDS011;25670;44.782;10.356;2022-07-21T09:39:53;7.88;;;4.93;;
39982;SDS011;25670;44.782;10.356;2022-07-21T09:44:58;7.88;;;5.75;;
39982;SDS011;25670;44.782;10.356;2022-07-21T09:47:27;6.60;;;5.60;;
39982;SDS011;25670;44.782;10.356;2022-07-21T09:49:54;7.65;;;5.35;;
39982;SDS011;25670;44.782;10.356;2022-07-21T09:52:26;10.15;;;5.10;;
39982;SDS011;25670;44.782;10.356;2022-07-21T09:54:58;8.13;;;5.03;;
39982;SDS011;25670;44.782;10.356;2022-07-21T09:57:27;14.38;;;4.72;;
39982;SDS011;25670;44.782;10.356;2022-07-21T09:59:54;6.13;;;5.53;;
39982;SDS011;25670;44.782;10.356;2022-07-21T10:07:26;5.55;;;4.47;;
39982;SDS011;25670;44.782;10.356;2022-07-21T10:09:53;6.55;;;4.18;;
39982;SDS011;25670;44.782;10.356;2022-07-21T10:12:21;8.32;;;3.67;;
39982;SDS011;25670;44.782;10.356;2022-07-21T10:14:49;6.32;;;3.70;;
39982;SDS011;25670;44.782;10.356;2022-07-21T10:17:16;6.38;;;3.17;;
39982;SDS011;25670;44.782;10.356;2022-07-21T10:25:16;3.38;;;2.88;;
39982;SDS011;25670;44.782;10.356;2022-07-21T10:28:18;7.22;;;2.80;;
39982;SDS011;25670;44.782;10.356;2022-07-21T10:30:36;6.13;;;3.65;;
39982;SDS011;25670;44.782;10.356;2022-07-21T10:33:04;4.38;;;3.55;;
39982;SDS011;25670;44.782;10.356;2022-07-21T10:35:30;6.32;;;2.83;;
39982;SDS011;25670;44.782;10.356;2022-07-21T10:37:58;5.10;;;2.60;;
39982;SDS011;25670;44.782;10.356;2022-07-21T10:45:31;8.35;;;2.88;;
39982;SDS011;25670;44.782;10.356;2022-07-21T10:48:05;7.70;;;2.65;;
39982;SDS011;25670;44.782;10.356;2022-07-21T10:50:57;6.43;;;2.80;;
39982;SDS011;25670;44.782;10.356;2022-07-21T10:53:26;3.45;;;2.63;;
39982;SDS011;25670;44.782;10.356;2022-07-21T10:55:53;2.78;;;2.47;;
39982;SDS011;25670;44.782;10.356;2022-07-21T11:00:51;4.70;;;2.67;;
39982;SDS011;25670;44.782;10.356;2022-07-21T11:08:52;5.70;;;3.15;;
39982;SDS011;25670;44.782;10.356;2022-07-21T11:11:27;6.15;;;3.20;;
39982;SDS011;25670;44.782;10.356;2022-07-21T11:21:56;3.22;;;3.03;;
39982;SDS011;25670;44.782;10.356;2022-07-21T11:24:24;8.63;;;2.97;;
39982;SDS011;25670;44.782;10.356;2022-07-21T11:26:56;7.57;;;3.15;;
39982;SDS011;25670;44.782;10.356;2022-07-21T11:29:23;6.90;;;2.97;;
39982;SDS011;25670;44.782;10.356;2022-07-21T11:31:51;3.22;;;2.97;;
39982;SDS011;25670;44.782;10.356;2022-07-21T11:34:17;6.40;;;2.75;;
39982;SDS011;25670;44.782;10.356;2022-07-21T11:36:45;4.70;;;3.05;;
39982;SDS011;25670;44.782;10.356;2022-07-21T11:39:13;8.05;;;3.22;;
39982;SDS011;25670;44.782;10.356;2022-07-21T11:41:41;4.90;;;3.33;;
39982;SDS011;25670;44.782;10.356;2022-07-21T11:44:09;5.72;;;3.08;;
39982;SDS011;25670;44.782;10.356;2022-07-21T11:46:46;4.03;;;3.10;;
39982;SDS011;25670;44.782;10.356;2022-07-21T11:49:14;4.32;;;2.90;;
39982;SDS011;25670;44.782;10.356;2022-07-21T11:51:52;7.65;;;2.95;;
39982;SDS011;25670;44.782;10.356;2022-07-21T11:54:28;5.03;;;3.25;;
39982;SDS011;25670;44.782;10.356;2022-07-21T11:56:55;6.78;;;3.22;;
39982;SDS011;25670;44.782;10.356;2022-07-21T11:59:22;3.10;;;2.85;;
39982;SDS011;25670;44.782;10.356;2022-07-21T12:01:54;7.72;;;2.47;;
39982;SDS011;25670;44.782;10.356;2022-07-21T12:04:29;5.32;;;2.08;;
39982;SDS011;25670;44.782;10.356;2022-07-21T12:06:59;3.50;;;1.95;;
39982;SDS011;25670;44.782;10.356;2022-07-21T12:09:27;4.82;;;2.05;;
39982;SDS011;25670;44.782;10.356;2022-07-21T12:11:54;4.22;;;2.53;;
39982;SDS011;25670;44.782;10.356;2022-07-21T12:14:28;2.28;;;2.08;;
39982;SDS011;25670;44.782;10.356;2022-07-21T12:17:08;5.32;;;2.85;;
39982;SDS011;25670;44.782;10.356;2022-07-21T12:19:35;5.43;;;2.22;;
39982;SDS011;25670;44.782;10.356;2022-07-21T12:22:02;5.68;;;2.05;;
39982;SDS011;25670;44.782;10.356;2022-07-21T12:24:49;9.40;;;2.50;;
39982;SDS011;25670;44.782;10.356;2022-07-21T12:27:17;4.93;;;2.67;;
39982;SDS011;25670;44.782;10.356;2022-07-21T12:29:44;13.23;;;2.72;;
39982;SDS011;25670;44.782;10.356;2022-07-21T12:32:11;2.67;;;2.55;;
39982;SDS011;25670;44.782;10.356;2022-07-21T12:34:48;5.13;;;2.63;;
39982;SDS011;25670;44.782;10.356;2022-07-21T12:37:18;5.90;;;2.33;;
39982;SDS011;25670;44.782;10.356;2022-07-21T12:39:59;8.40;;;3.00;;
39982;SDS011;25670;44.782;10.356;2022-07-21T12:42:31;3.10;;;2.50;;
39982;SDS011;25670;44.782;10.356;2022-07-21T12:44:59;5.15;;;2.50;;
39982;SDS011;25670;44.782;10.356;2022-07-21T12:47:25;4.57;;;2.28;;
39982;SDS011;25670;44.782;10.356;2022-07-21T12:52:31;5.13;;;2.45;;
39982;SDS011;25670;44.782;10.356;2022-07-21T12:54:58;9.70;;;2.78;;
39982;SDS011;25670;44.782;10.356;2022-07-21T12:57:27;3.20;;;2.90;;
39982;SDS011;25670;44.782;10.356;2022-07-21T12:59:55;2.75;;;2.55;;
39982;SDS011;25670;44.782;10.356;2022-07-21T13:02:22;8.25;;;3.08;;
39982;SDS011;25670;44.782;10.356;2022-07-21T13:04:49;5.07;;;2.50;;
39982;SDS011;25670;44.782;10.356;2022-07-21T13:07:16;2.78;;;2.50;;
39982;SDS011;25670;44.782;10.356;2022-07-21T13:09:42;4.07;;;2.65;;
39982;SDS011;25670;44.782;10.356;2022-07-21T13:12:11;3.17;;;2.88;;
39982;SDS011;25670;44.782;10.356;2022-07-21T13:14:39;5.70;;;3.55;;
39982;SDS011;25670;44.782;10.356;2022-07-21T13:17:06;3.30;;;2.53;;
39982;SDS011;25670;44.782;10.356;2022-07-21T13:19:34;4.47;;;3.00;;
39982;SDS011;25670;44.782;10.356;2022-07-21T13:22:03;7.07;;;2.53;;
39982;SDS011;25670;44.782;10.356;2022-07-21T13:24:30;6.03;;;3.05;;
39982;SDS011;25670;44.782;10.356;2022-07-21T13:26:57;5.28;;;3.05;;
39982;SDS011;25670;44.782;10.356;2022-07-21T13:29:23;5.38;;;2.42;;
39982;SDS011;25670;44.782;10.356;2022-07-21T13:31:49;3.17;;;2.70;;
39982;SDS011;25670;44.782;10.356;2022-07-21T13:34:16;4.65;;;2.65;;
39982;SDS011;25670;44.782;10.356;2022-07-21T13:36:42;9.00;;;3.20;;
39982;SDS011;25670;44.782;10.356;2022-07-21T13:39:09;6.63;;;2.75;;
39982;SDS011;25670;44.782;10.356;2022-07-21T13:41:35;2.70;;;2.50;;
39982;SDS011;25670;44.782;10.356;2022-07-21T13:44:03;3.25;;;2.60;;
39982;SDS011;25670;44.782;10.356;2022-07-21T13:46:30;5.75;;;2.28;;
39982;SDS011;25670;44.782;10.356;2022-07-21T13:48:56;5.40;;;2.30;;
39982;SDS011;25670;44.782;10.356;2022-07-21T13:51:22;4.70;;;2.38;;
39982;SDS011;25670;44.782;10.356;2022-07-21T13:53:49;2.70;;;2.45;;
39982;SDS011;25670;44.782;10.356;2022-07-21T13:56:17;5.65;;;2.47;;
39982;SDS011;25670;44.782;10.356;2022-07-21T13:58:45;3.17;;;2.50;;
39982;SDS011;25670;44.782;10.356;2022-07-21T14:01:11;3.70;;;2.60;;
39982;SDS011;25670;44.782;10.356;2022-07-21T14:03:39;4.45;;;2.85;;
39982;SDS011;25670;44.782;10.356;2022-07-21T14:06:05;2.83;;;2.63;;
39982;SDS011;25670;44.782;10.356;2022-07-21T14:08:32;6.18;;;2.63;;
39982;SDS011;25670;44.782;10.356;2022-07-21T14:10:58;4.40;;;3.10;;
39982;SDS011;25670;44.782;10.356;2022-07-21T14:13:24;2.78;;;2.53;;
39982;SDS011;25670;44.782;10.356;2022-07-21T14:15:51;6.32;;;2.67;;
39982;SDS011;25670;44.782;10.356;2022-07-21T14:18:17;4.78;;;2.55;;
39982;SDS011;25670;44.782;10.356;2022-07-21T14:20:43;3.20;;;2.90;;
39982;SDS011;25670;44.782;10.356;2022-07-21T14:23:09;2.50;;;2.30;;
39982;SDS011;25670;44.782;10.356;2022-07-21T14:25:36;8.88;;;2.42;;
39982;SDS011;25670;44.782;10.356;2022-07-21T14:28:02;3.15;;;2.35;;
39982;SDS011;25670;44.782;10.356;2022-07-21T14:30:29;3.47;;;2.63;;
39982;SDS011;25670;44.782;10.356;2022-07-21T14:32:55;4.90;;;2.45;;
39982;SDS011;25670;44.782;10.356;2022-07-21T14:35:22;4.63;;;2.80;;
39982;SDS011;25670;44.782;10.356;2022-07-21T14:37:48;7.50;;;2.88;;
39982;SDS011;25670;44.782;10.356;2022-07-21T14:40:16;2.80;;;2.60;;
39982;SDS011;25670;44.782;10.356;2022-07-21T14:42:43;3.05;;;2.85;;
39982;SDS011;25670;44.782;10.356;2022-07-21T14:45:11;3.88;;;2.30;;
39982;SDS011;25670;44.782;10.356;2022-07-21T14:47:38;3.63;;;3.33;;
39982;SDS011;25670;44.782;10.356;2022-07-21T14:50:04;5.22;;;2.90;;
39982;SDS011;25670;44.782;10.356;2022-07-21T14:52:31;5.55;;;2.90;;
39982;SDS011;25670;44.782;10.356;2022-07-21T14:54:57;3.58;;;3.10;;
39982;SDS011;25670;44.782;10.356;2022-07-21T14:57:23;7.50;;;3.10;;
39982;SDS011;25670;44.782;10.356;2022-07-21T14:59:49;3.45;;;2.53;;
39982;SDS011;25670;44.782;10.356;2022-07-21T15:02:16;5.57;;;2.50;;
39982;SDS011;25670;44.782;10.356;2022-07-21T15:04:42;4.20;;;2.65;;
39982;SDS011;25670;44.782;10.356;2022-07-21T15:07:08;3.80;;;2.72;;
39982;SDS011;25670;44.782;10.356;2022-07-21T15:09:35;4.78;;;3.53;;
39982;SDS011;25670;44.782;10.356;2022-07-21T15:12:01;4.35;;;3.00;;
39982;SDS011;25670;44.782;10.356;2022-07-21T15:14:28;4.15;;;3.10;;
39982;SDS011;25670;44.782;10.356;2022-07-21T15:16:54;4.57;;;2.90;;
39982;SDS011;25670;44.782;10.356;2022-07-21T15:19:20;4.50;;;3.65;;
39982;SDS011;25670;44.782;10.356;2022-07-21T15:21:47;5.90;;;3.03;;